Weather at Skylark Airport [CLOSED]

Public forecast

Using degrees Fahrenheit for public forecast. Weather courtesy of forecast.io.

Closest aviation weather report (METAR) to Skylark Airport

Closest report is C David Campbell Field Corsicana Municipal Airport, 17.6 nm (32.6 km) SSE. Retrieved 2020/10/24 19:53 UTC (23 minutes ago):

KCRS 241953Z AUTO 00000KT 10SM BKN044 OVC060 18/07 A3005 RMK AO2 SLP173 T01780072

Closest aviation forecast (TAF) to Skylark Airport

Closest forecast is Dallas Love Field, 37.0 nm (68.6 km) NNW. Retrieved 2020/10/24 18:22 UTC (2 hours ago):

TAF KDAL 241720Z 2418/2518 33005KT P6SM SCT035 FM250000 12005KT P6SM FEW035 FM251600 16011KT P6SM SCT035